createdAt,value
2023-01-01T00:02:04.836Z,13.76
2023-01-01T00:05:32.314Z,13.71
2023-01-01T00:09:13.110Z,13.66
2023-01-01T00:12:40.389Z,13.61
2023-01-01T00:16:12.651Z,13.57
2023-01-01T00:19:39.947Z,13.53
2023-01-01T00:23:06.946Z,13.51
2023-01-01T00:26:35.586Z,13.47
2023-01-01T00:30:04.443Z,13.46
2023-01-01T00:33:31.598Z,13.44
2023-01-01T00:36:59.566Z,13.44
2023-01-01T00:40:26.738Z,13.44
2023-01-01T00:43:53.694Z,13.45
2023-01-01T00:47:20.540Z,13.50
2023-01-01T00:50:47.606Z,13.53
2023-01-01T00:54:14.459Z,13.54
2023-01-01T00:57:41.828Z,13.54
2023-01-01T01:01:09.487Z,13.53
2023-01-01T01:04:36.787Z,13.53
2023-01-01T01:08:03.695Z,13.55
2023-01-01T01:11:30.864Z,13.58
2023-01-01T01:14:57.721Z,13.58
2023-01-01T01:18:24.674Z,13.59
2023-01-01T01:21:52.583Z,13.59
2023-01-01T01:25:19.737Z,13.56
2023-01-01T01:28:50.086Z,13.55
2023-01-01T01:32:17.481Z,13.51
2023-01-01T01:35:51.313Z,13.47
2023-01-01T01:39:18.351Z,13.43
2023-01-01T01:42:48.665Z,13.38
2023-01-01T01:46:19.009Z,13.33
2023-01-01T01:49:47.474Z,13.27
2023-01-01T01:53:19.113Z,13.22
2023-01-01T01:56:51.776Z,13.18
2023-01-01T02:00:20.109Z,13.14
2023-01-01T02:03:52.961Z,13.10
2023-01-01T02:07:20.800Z,13.08
2023-01-01T02:10:47.750Z,13.06
2023-01-01T02:14:15.311Z,13.09
2023-01-01T02:17:53.745Z,13.10
2023-01-01T02:21:26.598Z,13.11
2023-01-01T02:25:06.432Z,13.13
2023-01-01T02:28:51.885Z,13.16
2023-01-01T02:32:22.389Z,13.18
2023-01-01T02:35:53.707Z,13.19
2023-01-01T02:39:23.772Z,13.18
2023-01-01T02:42:51.940Z,13.19
2023-01-01T02:49:52.634Z,13.15
2023-01-01T02:53:28.509Z,13.13
2023-01-01T02:57:06.291Z,13.12
2023-01-01T03:00:35.384Z,13.11
2023-01-01T03:04:13.006Z,13.11
2023-01-01T03:07:50.148Z,13.10
2023-01-01T03:11:19.950Z,13.08
2023-01-01T03:14:47.570Z,13.05
2023-01-01T03:18:20.353Z,13.02
2023-01-01T03:21:51.849Z,13.01
2023-01-01T03:25:24.002Z,12.99
2023-01-01T03:28:57.139Z,12.98
2023-01-01T03:32:50.006Z,12.96
2023-01-01T03:36:20.497Z,12.94
2023-01-01T03:39:51.142Z,12.92
2023-01-01T03:43:23.795Z,12.90
2023-01-01T03:46:51.515Z,12.86
2023-01-01T03:50:19.093Z,12.83
2023-01-01T03:53:46.322Z,12.80
2023-01-01T03:57:21.131Z,12.80
2023-01-01T04:00:52.724Z,12.78
2023-01-01T04:04:20.706Z,12.75
2023-01-01T04:11:50.109Z,12.70
2023-01-01T04:15:17.443Z,12.65
2023-01-01T04:18:44.458Z,12.59
2023-01-01T04:22:11.480Z,12.50
2023-01-01T04:25:38.407Z,12.42
2023-01-01T04:29:05.288Z,12.38
2023-01-01T04:32:33.299Z,12.34
2023-01-01T04:36:07.410Z,12.30
2023-01-01T04:39:34.301Z,12.29
2023-01-01T04:43:01.657Z,12.29
2023-01-01T04:46:28.802Z,12.29
2023-01-01T04:49:55.680Z,12.30
2023-01-01T04:53:22.662Z,12.31
2023-01-01T04:56:49.454Z,12.33
2023-01-01T05:00:17.459Z,12.35
2023-01-01T05:03:44.547Z,12.37
2023-01-01T05:07:11.356Z,12.41
2023-01-01T05:10:38.234Z,12.46
2023-01-01T05:14:05.530Z,12.49
2023-01-01T05:17:32.337Z,12.52
2023-01-01T05:21:03.392Z,12.56
2023-01-01T05:24:31.499Z,12.60
2023-01-01T05:27:58.401Z,12.64
2023-01-01T05:31:27.337Z,12.71
2023-01-01T05:34:55.156Z,12.77
2023-01-01T05:38:22.464Z,12.84
2023-01-01T05:41:49.378Z,12.84
2023-01-01T05:45:16.410Z,12.85
2023-01-01T05:48:43.487Z,12.83
2023-01-01T05:52:10.550Z,12.82
2023-01-01T05:55:37.415Z,12.81
2023-01-01T05:59:05.488Z,12.76
2023-01-01T06:02:34.294Z,12.71
2023-01-01T06:06:06.321Z,12.66
2023-01-01T06:09:33.508Z,12.63
2023-01-01T06:13:00.621Z,12.60
2023-01-01T06:16:29.741Z,12.60
2023-01-01T06:19:56.668Z,12.61
2023-01-01T06:23:23.506Z,12.64
2023-01-01T06:26:50.334Z,12.70
2023-01-01T06:30:17.341Z,12.73
2023-01-01T06:33:44.773Z,12.79
2023-01-01T06:37:11.739Z,12.87
2023-01-01T06:40:38.609Z,12.94
2023-01-01T06:44:05.818Z,13.00
2023-01-01T06:47:36.352Z,13.03
2023-01-01T06:51:11.365Z,13.07
2023-01-01T06:54:38.295Z,13.09
2023-01-01T06:58:09.342Z,13.12
2023-01-01T07:01:44.454Z,13.15
2023-01-01T07:05:12.493Z,13.19
2023-01-01T07:08:39.617Z,13.25
2023-01-01T07:12:07.071Z,13.32
2023-01-01T07:15:34.422Z,13.37
2023-01-01T07:19:01.788Z,13.41
2023-01-01T07:22:29.198Z,13.47
2023-01-01T07:25:57.547Z,13.53
2023-01-01T07:29:24.843Z,13.60
2023-01-01T07:32:57.436Z,13.66
2023-01-01T07:36:24.518Z,13.72
2023-01-01T07:39:51.526Z,13.76
2023-01-01T07:43:18.467Z,13.82
2023-01-01T07:46:45.409Z,13.88
2023-01-01T07:50:18.350Z,13.93
2023-01-01T07:53:45.270Z,13.98
2023-01-01T07:57:12.357Z,14.02
2023-01-01T08:00:39.592Z,14.07
2023-01-01T08:04:06.734Z,14.12
2023-01-01T08:07:33.717Z,14.18
2023-01-01T08:11:04.440Z,14.25
2023-01-01T08:14:29.781Z,14.32
2023-01-01T08:18:00.298Z,14.36
2023-01-01T08:21:27.609Z,14.42
2023-01-01T08:24:54.751Z,14.47
2023-01-01T08:28:21.607Z,14.51
2023-01-01T08:31:48.478Z,14.53
2023-01-01T08:35:15.664Z,14.53
2023-01-01T08:38:42.532Z,14.51
2023-01-01T08:42:12.401Z,14.50
2023-01-01T08:45:39.711Z,14.51
2023-01-01T08:49:06.956Z,14.50
2023-01-01T08:52:34.228Z,14.52
2023-01-01T08:56:03.938Z,14.53
2023-01-01T08:59:31.009Z,14.56
2023-01-01T09:02:58.104Z,14.60
2023-01-01T09:06:25.268Z,14.64
2023-01-01T09:09:52.344Z,14.69
2023-01-01T09:13:22.738Z,14.73
2023-01-01T09:16:49.854Z,14.77
2023-01-01T09:20:18.944Z,14.81
2023-01-01T09:23:45.962Z,14.87
2023-01-01T09:27:12.866Z,14.90
2023-01-01T09:30:39.785Z,14.94
2023-01-01T09:34:06.712Z,14.96
2023-01-01T09:37:34.620Z,15.00
2023-01-01T09:41:10.619Z,15.06
2023-01-01T09:45:00.325Z,15.13
2023-01-01T09:48:30.525Z,15.18
2023-01-01T09:52:01.798Z,15.23
2023-01-01T09:55:44.772Z,15.31
2023-01-01T09:59:13.327Z,15.39
2023-01-01T10:02:54.019Z,15.46
2023-01-01T10:06:27.312Z,15.51
2023-01-01T10:10:05.098Z,15.54
2023-01-01T10:13:39.153Z,15.56
2023-01-01T10:17:12.395Z,15.58
2023-01-01T10:20:44.163Z,15.59
2023-01-01T10:24:29.400Z,15.56
2023-01-01T10:28:01.112Z,15.54
2023-01-01T10:31:34.563Z,15.54
2023-01-01T10:35:03.543Z,15.53
2023-01-01T10:38:30.824Z,15.53
2023-01-01T10:42:01.619Z,15.53
2023-01-01T10:45:34.260Z,15.52
2023-01-01T10:49:12.182Z,15.52
2023-01-01T10:52:41.049Z,15.51
2023-01-01T10:56:11.790Z,15.50
2023-01-01T10:59:40.876Z,15.49
2023-01-01T11:03:21.211Z,15.48
2023-01-01T11:06:49.371Z,15.47
2023-01-01T11:10:21.304Z,15.44
2023-01-01T11:13:52.854Z,15.40
2023-01-01T11:17:24.979Z,15.36
2023-01-01T11:20:57.403Z,15.37
2023-01-01T11:24:27.004Z,15.40
2023-01-01T11:27:52.402Z,15.44
2023-01-01T11:31:21.579Z,15.47
2023-01-01T11:34:54.963Z,15.48
2023-01-01T11:38:29.524Z,15.49
2023-01-01T11:41:59.388Z,15.50
2023-01-01T11:45:37.247Z,15.53
2023-01-01T11:49:13.853Z,15.57
2023-01-01T11:52:42.599Z,15.59
2023-01-01T11:56:14.110Z,15.60
2023-01-01T11:59:48.244Z,15.63
2023-01-01T12:03:33.322Z,15.67
2023-01-01T12:07:06.478Z,15.71
2023-01-01T12:10:41.715Z,15.74
2023-01-01T12:14:18.483Z,15.75
2023-01-01T12:17:48.466Z,15.74
2023-01-01T12:21:23.667Z,15.70
2023-01-01T12:24:52.108Z,15.66
2023-01-01T12:28:35.159Z,15.61
2023-01-01T12:32:08.239Z,15.57
2023-01-01T12:35:45.176Z,15.54
2023-01-01T12:39:45.837Z,15.52
2023-01-01T12:43:15.921Z,15.50
2023-01-01T12:46:57.943Z,15.48
2023-01-01T12:50:36.916Z,15.46
2023-01-01T12:54:31.534Z,15.40
2023-01-01T12:58:05.884Z,15.35
2023-01-01T13:01:34.997Z,15.30
2023-01-01T13:05:09.012Z,15.24
2023-01-01T13:08:38.981Z,15.19
2023-01-01T13:12:09.259Z,15.15
2023-01-01T13:15:55.245Z,15.09
2023-01-01T13:19:35.062Z,15.03
2023-01-01T13:23:01.956Z,14.96
2023-01-01T13:26:42.759Z,14.90
2023-01-01T13:30:53.738Z,14.84
2023-01-01T13:34:50.843Z,14.73
2023-01-01T13:38:44.772Z,14.62
2023-01-01T13:42:41.669Z,14.53
2023-01-01T13:46:13.034Z,14.46
2023-01-01T13:49:59.900Z,14.43
2023-01-01T13:53:51.101Z,14.41
2023-01-01T13:57:33.462Z,14.38
2023-01-01T14:01:36.106Z,14.33
2023-01-01T14:05:06.906Z,14.25
2023-01-01T14:08:35.415Z,14.20
2023-01-01T14:12:16.086Z,14.13
2023-01-01T14:15:51.243Z,14.07
2023-01-01T14:19:18.303Z,14.03
2023-01-01T14:22:47.014Z,13.98
2023-01-01T14:26:16.675Z,13.91
2023-01-01T14:29:43.247Z,13.84
2023-01-01T14:33:25.299Z,13.75
2023-01-01T14:36:56.621Z,13.67
2023-01-01T14:40:29.580Z,13.57
2023-01-01T14:43:59.432Z,13.47
2023-01-01T14:47:30.131Z,13.36
2023-01-01T14:50:58.480Z,13.25
2023-01-01T14:54:32.461Z,13.13
2023-01-01T14:58:02.336Z,13.01
2023-01-01T15:01:29.769Z,12.89
2023-01-01T15:04:58.411Z,12.76
2023-01-01T15:08:27.034Z,12.66
2023-01-01T15:11:56.590Z,12.56
2023-01-01T15:15:44.294Z,12.46
2023-01-01T15:19:24.340Z,12.35
2023-01-01T15:22:52.949Z,12.25
2023-01-01T15:26:30.340Z,12.17
2023-01-01T15:29:57.888Z,12.09
2023-01-01T15:33:25.542Z,12.02
2023-01-01T15:36:54.433Z,11.96
2023-01-01T15:40:52.760Z,11.90
2023-01-01T15:44:29.330Z,11.80
2023-01-01T15:47:58.509Z,11.75
2023-01-01T15:51:28.417Z,11.68
2023-01-01T15:54:55.751Z,11.61
2023-01-01T15:58:31.872Z,11.55
2023-01-01T16:02:13.539Z,11.49
2023-01-01T16:05:50.314Z,11.44
2023-01-01T16:09:20.187Z,11.40
2023-01-01T16:12:47.030Z,11.35
2023-01-01T16:16:28.225Z,11.34
2023-01-01T16:19:56.389Z,11.33
2023-01-01T16:23:23.732Z,11.32
2023-01-01T16:26:50.897Z,11.30
2023-01-01T16:30:18.436Z,11.27
2023-01-01T16:33:46.308Z,11.25
2023-01-01T16:37:13.225Z,11.23
2023-01-01T16:40:40.495Z,11.23
2023-01-01T16:44:07.671Z,11.22
2023-01-01T16:47:34.600Z,11.21
2023-01-01T16:51:01.842Z,11.19
2023-01-01T16:54:28.974Z,11.19
2023-01-01T16:58:21.235Z,11.20
2023-01-01T17:01:44.886Z,11.19
2023-01-01T17:05:12.927Z,11.18
2023-01-01T17:08:40.793Z,11.18
2023-01-01T17:12:08.454Z,11.17
2023-01-01T17:15:35.860Z,11.17
2023-01-01T17:19:18.144Z,11.18
2023-01-01T17:22:46.150Z,11.16
2023-01-01T17:26:16.024Z,11.15
2023-01-01T17:29:43.005Z,11.14
2023-01-01T17:33:10.017Z,11.14
2023-01-01T17:36:36.892Z,11.13
2023-01-01T17:40:03.915Z,11.13
2023-01-01T17:43:34.921Z,11.11
2023-01-01T17:47:02.071Z,11.11
2023-01-01T17:50:29.852Z,11.12
2023-01-01T17:53:57.571Z,11.13
2023-01-01T17:57:25.392Z,11.13
2023-01-01T18:00:52.905Z,11.14
2023-01-01T18:04:20.793Z,11.15
2023-01-01T18:07:47.657Z,11.14
2023-01-01T18:11:14.920Z,11.12
2023-01-01T18:14:41.997Z,11.10
2023-01-01T18:18:08.895Z,11.07
2023-01-01T18:21:36.354Z,11.04
2023-01-01T18:25:03.357Z,11.00
2023-01-01T18:28:31.201Z,10.96
2023-01-01T18:31:58.182Z,10.92
2023-01-01T18:35:25.066Z,10.87
2023-01-01T18:39:00.573Z,10.85
2023-01-01T18:42:44.342Z,10.82
2023-01-01T18:46:12.429Z,10.81
2023-01-01T18:49:40.743Z,10.82
2023-01-01T18:53:19.302Z,10.83
2023-01-01T18:56:48.107Z,10.82
2023-01-01T19:00:24.170Z,10.81
2023-01-01T19:03:53.707Z,10.80
2023-01-01T19:07:21.220Z,10.78
2023-01-01T19:10:50.618Z,10.77
2023-01-01T19:14:20.010Z,10.75
2023-01-01T19:17:47.489Z,10.72
2023-01-01T19:21:22.531Z,10.70
2023-01-01T19:24:49.479Z,10.66
2023-01-01T19:28:39.414Z,10.63
2023-01-01T19:32:06.982Z,10.59
2023-01-01T19:35:33.857Z,10.54
2023-01-01T19:39:01.143Z,10.51
2023-01-01T19:42:28.447Z,10.48
2023-01-01T19:45:55.422Z,10.46
2023-01-01T19:49:22.236Z,10.43
2023-01-01T19:52:49.230Z,10.39
2023-01-01T19:56:16.890Z,10.38
2023-01-01T19:59:43.818Z,10.37
2023-01-01T20:03:51.448Z,10.35
2023-01-01T20:06:57.782Z,10.34
2023-01-01T20:10:25.167Z,10.35
2023-01-01T20:13:52.517Z,10.40
2023-01-01T20:17:19.808Z,10.47
2023-01-01T20:21:00.671Z,10.53
2023-01-01T20:24:27.865Z,10.60
2023-01-01T20:28:12.443Z,10.63
2023-01-01T20:31:40.530Z,10.64
2023-01-01T20:35:08.606Z,10.66
2023-01-01T20:38:40.019Z,10.68
2023-01-01T20:42:08.090Z,10.70
2023-01-01T20:45:35.055Z,10.72
2023-01-01T20:49:02.031Z,10.74
2023-01-01T20:52:29.850Z,10.75
2023-01-01T20:55:56.730Z,10.73
2023-01-01T20:59:35.396Z,10.72
2023-01-01T21:03:04.336Z,10.72
2023-01-01T21:06:31.399Z,10.72
2023-01-01T21:09:58.287Z,10.73
2023-01-01T21:13:25.781Z,10.72
2023-01-01T21:16:53.016Z,10.74
2023-01-01T21:20:20.393Z,10.73
2023-01-01T21:23:47.842Z,10.75
2023-01-01T21:27:19.073Z,10.76
2023-01-01T21:30:51.773Z,10.80
2023-01-01T21:34:38.456Z,10.82
2023-01-01T21:38:17.451Z,10.86
2023-01-01T21:41:44.506Z,10.89
2023-01-01T21:45:19.333Z,10.91
2023-01-01T21:48:56.396Z,10.90
2023-01-01T21:52:26.064Z,10.88
2023-01-01T21:55:55.343Z,10.87
2023-01-01T21:59:30.373Z,10.85
2023-01-01T22:02:57.291Z,10.83
2023-01-01T22:06:24.440Z,10.82
2023-01-01T22:09:52.428Z,10.83
2023-01-01T22:13:20.830Z,10.84
2023-01-01T22:16:52.453Z,10.86
2023-01-01T22:20:24.165Z,10.87
2023-01-01T22:23:55.754Z,10.90
2023-01-01T22:27:30.188Z,10.94
2023-01-01T22:31:01.096Z,10.97
2023-01-01T22:34:28.220Z,11.01
2023-01-01T22:37:56.641Z,11.03
2023-01-01T22:41:23.951Z,11.05
2023-01-01T22:45:00.538Z,11.06
2023-01-01T22:48:33.692Z,11.08
2023-01-01T22:52:01.767Z,11.10
2023-01-01T22:55:28.893Z,11.11
2023-01-01T22:58:57.630Z,11.12
2023-01-01T23:02:24.982Z,11.14
2023-01-01T23:05:53.058Z,11.16
2023-01-01T23:09:20.138Z,11.15
2023-01-01T23:12:47.267Z,11.13
2023-01-01T23:16:14.363Z,11.11
2023-01-01T23:19:41.379Z,11.08
2023-01-01T23:23:08.330Z,11.05
2023-01-01T23:26:35.435Z,11.03
2023-01-01T23:30:03.686Z,11.01
2023-01-01T23:33:32.615Z,10.99
2023-01-01T23:36:59.863Z,10.97
2023-01-01T23:40:27.078Z,10.94
2023-01-01T23:43:53.985Z,10.92
2023-01-01T23:47:21.168Z,10.91
2023-01-01T23:50:48.865Z,10.91
2023-01-01T23:54:15.910Z,10.89
2023-01-01T23:57:42.873Z,10.89
